sensor_id;sensor_type;location;lat;lon;timestamp;temperature;humidity
70826;SHT31;58446;41.490;22.098;2023-04-24T00:02:07;14.10;76.57
70826;SHT31;58446;41.490;22.098;2023-04-24T00:04:34;14.20;75.94
70826;SHT31;58446;41.490;22.098;2023-04-24T00:07:00;14.20;76.21
70826;SHT31;58446;41.490;22.098;2023-04-24T00:09:26;14.12;76.47
70826;SHT31;58446;41.490;22.098;2023-04-24T00:11:52;14.04;76.90
70826;SHT31;58446;41.490;22.098;2023-04-24T00:14:18;14.01;76.85
70826;SHT31;58446;41.490;22.098;2023-04-24T00:16:44;14.08;76.51
70826;SHT31;58446;41.490;22.098;2023-04-24T00:19:10;14.02;76.60
70826;SHT31;58446;41.490;22.098;2023-04-24T00:21:36;13.98;76.98
70826;SHT31;58446;41.490;22.098;2023-04-24T00:24:03;14.01;77.14
70826;SHT31;58446;41.490;22.098;2023-04-24T00:26:28;13.98;77.00
70826;SHT31;58446;41.490;22.098;2023-04-24T00:28:54;13.90;77.41
70826;SHT31;58446;41.490;22.098;2023-04-24T00:31:20;13.82;77.55
70826;SHT31;58446;41.490;22.098;2023-04-24T00:33:45;13.83;77.54
70826;SHT31;58446;41.490;22.098;2023-04-24T00:36:11;13.82;77.74
70826;SHT31;58446;41.490;22.098;2023-04-24T00:38:37;13.85;77.62
70826;SHT31;58446;41.490;22.098;2023-04-24T00:41:02;13.94;77.15
70826;SHT31;58446;41.490;22.098;2023-04-24T00:43:28;13.92;77.13
70826;SHT31;58446;41.490;22.098;2023-04-24T00:45:54;13.89;77.35
70826;SHT31;58446;41.490;22.098;2023-04-24T00:48:20;13.92;77.35
70826;SHT31;58446;41.490;22.098;2023-04-24T00:50:46;13.90;77.39
70826;SHT31;58446;41.490;22.098;2023-04-24T00:53:12;13.88;77.52
70826;SHT31;58446;41.490;22.098;2023-04-24T00:55:38;13.99;77.37
70826;SHT31;58446;41.490;22.098;2023-04-24T00:58:04;13.83;77.89
70826;SHT31;58446;41.490;22.098;2023-04-24T01:00:30;13.75;78.34
70826;SHT31;58446;41.490;22.098;2023-04-24T01:02:58;13.77;78.37
70826;SHT31;58446;41.490;22.098;2023-04-24T01:05:25;13.68;78.57
70826;SHT31;58446;41.490;22.098;2023-04-24T01:07:51;13.64;78.91
70826;SHT31;58446;41.490;22.098;2023-04-24T01:10:17;13.67;78.95
70826;SHT31;58446;41.490;22.098;2023-04-24T01:12:43;13.67;78.93
70826;SHT31;58446;41.490;22.098;2023-04-24T01:15:09;13.61;79.17
70826;SHT31;58446;41.490;22.098;2023-04-24T01:17:35;13.59;79.29
70826;SHT31;58446;41.490;22.098;2023-04-24T01:20:01;13.55;79.53
70826;SHT31;58446;41.490;22.098;2023-04-24T01:22:30;13.62;79.36
70826;SHT31;58446;41.490;22.098;2023-04-24T01:24:56;13.58;79.42
70826;SHT31;58446;41.490;22.098;2023-04-24T01:27:22;13.50;79.85
70826;SHT31;58446;41.490;22.098;2023-04-24T01:29:47;13.47;79.86
70826;SHT31;58446;41.490;22.098;2023-04-24T01:32:14;13.46;79.96
70826;SHT31;58446;41.490;22.098;2023-04-24T01:34:40;13.50;79.79
70826;SHT31;58446;41.490;22.098;2023-04-24T01:37:06;13.53;79.74
70826;SHT31;58446;41.490;22.098;2023-04-24T01:39:32;13.57;79.45
70826;SHT31;58446;41.490;22.098;2023-04-24T01:41:59;13.51;79.53
70826;SHT31;58446;41.490;22.098;2023-04-24T01:44:26;13.51;79.46
70826;SHT31;58446;41.490;22.098;2023-04-24T01:46:52;13.55;79.22
70826;SHT31;58446;41.490;22.098;2023-04-24T01:49:19;13.58;79.17
70826;SHT31;58446;41.490;22.098;2023-04-24T01:51:45;13.57;79.18
70826;SHT31;58446;41.490;22.098;2023-04-24T01:54:11;13.59;79.36
70826;SHT31;58446;41.490;22.098;2023-04-24T01:56:40;13.72;78.69
70826;SHT31;58446;41.490;22.098;2023-04-24T01:59:07;13.67;79.11
70826;SHT31;58446;41.490;22.098;2023-04-24T02:01:35;13.64;79.36
70826;SHT31;58446;41.490;22.098;2023-04-24T02:04:05;13.53;79.48
70826;SHT31;58446;41.490;22.098;2023-04-24T02:06:31;13.48;79.79
70826;SHT31;58446;41.490;22.098;2023-04-24T02:09:00;13.48;79.85
70826;SHT31;58446;41.490;22.098;2023-04-24T02:11:26;13.41;79.94
70826;SHT31;58446;41.490;22.098;2023-04-24T02:13:52;13.47;79.71
70826;SHT31;58446;41.490;22.098;2023-04-24T02:16:18;13.40;80.22
70826;SHT31;58446;41.490;22.098;2023-04-24T02:18:44;13.44;80.07
70826;SHT31;58446;41.490;22.098;2023-04-24T02:21:10;13.41;80.34
70826;SHT31;58446;41.490;22.098;2023-04-24T02:23:35;13.50;79.90
70826;SHT31;58446;41.490;22.098;2023-04-24T02:26:01;13.38;80.19
70826;SHT31;58446;41.490;22.098;2023-04-24T02:28:27;13.40;80.18
70826;SHT31;58446;41.490;22.098;2023-04-24T02:30:53;13.34;80.50
70826;SHT31;58446;41.490;22.098;2023-04-24T02:33:19;13.26;80.83
70826;SHT31;58446;41.490;22.098;2023-04-24T02:35:45;13.21;80.90
70826;SHT31;58446;41.490;22.098;2023-04-24T02:38:10;13.31;80.29
70826;SHT31;58446;41.490;22.098;2023-04-24T02:40:36;13.14;80.66
70826;SHT31;58446;41.490;22.098;2023-04-24T02:43:02;13.06;80.81
70826;SHT31;58446;41.490;22.098;2023-04-24T02:45:27;13.07;80.46
70826;SHT31;58446;41.490;22.098;2023-04-24T02:47:53;13.08;80.41
70826;SHT31;58446;41.490;22.098;2023-04-24T02:50:19;13.24;79.51
70826;SHT31;58446;41.490;22.098;2023-04-24T02:52:44;13.36;78.94
70826;SHT31;58446;41.490;22.098;2023-04-24T02:55:10;13.28;79.09
70826;SHT31;58446;41.490;22.098;2023-04-24T02:57:39;13.28;79.17
70826;SHT31;58446;41.490;22.098;2023-04-24T03:00:05;13.30;79.26
70826;SHT31;58446;41.490;22.098;2023-04-24T03:02:32;13.20;79.38
70826;SHT31;58446;41.490;22.098;2023-04-24T03:04:59;13.18;79.41
70826;SHT31;58446;41.490;22.098;2023-04-24T03:07:25;13.26;79.11
70826;SHT31;58446;41.490;22.098;2023-04-24T03:09:50;13.04;79.94
70826;SHT31;58446;41.490;22.098;2023-04-24T03:12:16;13.11;79.71
70826;SHT31;58446;41.490;22.098;2023-04-24T03:14:43;13.28;79.15
70826;SHT31;58446;41.490;22.098;2023-04-24T03:17:09;13.36;78.80
70826;SHT31;58446;41.490;22.098;2023-04-24T03:19:34;13.31;78.94
70826;SHT31;58446;41.490;22.098;2023-04-24T03:22:02;13.26;79.39
70826;SHT31;58446;41.490;22.098;2023-04-24T03:24:28;13.20;79.65
70826;SHT31;58446;41.490;22.098;2023-04-24T03:26:53;13.17;79.71
70826;SHT31;58446;41.490;22.098;2023-04-24T03:29:19;13.07;80.05
70826;SHT31;58446;41.490;22.098;2023-04-24T03:31:45;13.00;80.43
70826;SHT31;58446;41.490;22.098;2023-04-24T03:34:10;12.97;80.52
70826;SHT31;58446;41.490;22.098;2023-04-24T03:36:36;13.02;80.40
70826;SHT31;58446;41.490;22.098;2023-04-24T03:39:02;13.00;80.31
70826;SHT31;58446;41.490;22.098;2023-04-24T03:41:29;13.00;80.44
70826;SHT31;58446;41.490;22.098;2023-04-24T03:43:55;12.90;80.44
70826;SHT31;58446;41.490;22.098;2023-04-24T03:46:21;12.86;80.32
70826;SHT31;58446;41.490;22.098;2023-04-24T03:48:47;12.86;80.36
70826;SHT31;58446;41.490;22.098;2023-04-24T03:51:13;12.82;80.28
70826;SHT31;58446;41.490;22.098;2023-04-24T03:53:38;12.76;80.00
70826;SHT31;58446;41.490;22.098;2023-04-24T03:56:04;12.72;80.11
70826;SHT31;58446;41.490;22.098;2023-04-24T03:58:30;12.75;79.78
70826;SHT31;58446;41.490;22.098;2023-04-24T04:00:55;12.79;79.69
70826;SHT31;58446;41.490;22.098;2023-04-24T04:03:23;12.89;79.62
70826;SHT31;58446;41.490;22.098;2023-04-24T04:05:49;12.80;80.28
70826;SHT31;58446;41.490;22.098;2023-04-24T04:08:15;12.82;80.24
70826;SHT31;58446;41.490;22.098;2023-04-24T04:10:41;12.85;80.15
70826;SHT31;58446;41.490;22.098;2023-04-24T04:13:06;12.95;79.82
70826;SHT31;58446;41.490;22.098;2023-04-24T04:15:32;13.38;78.76
70826;SHT31;58446;41.490;22.098;2023-04-24T04:17:58;13.89;76.44
70826;SHT31;58446;41.490;22.098;2023-04-24T04:20:23;14.01;75.43
70826;SHT31;58446;41.490;22.098;2023-04-24T04:22:50;14.19;74.72
70826;SHT31;58446;41.490;22.098;2023-04-24T04:25:15;14.23;74.50
70826;SHT31;58446;41.490;22.098;2023-04-24T04:27:44;14.50;73.24
70826;SHT31;58446;41.490;22.098;2023-04-24T04:30:10;14.66;72.62
70826;SHT31;58446;41.490;22.098;2023-04-24T04:32:35;14.43;73.18
70826;SHT31;58446;41.490;22.098;2023-04-24T04:35:03;14.32;73.78
70826;SHT31;58446;41.490;22.098;2023-04-24T04:37:30;14.17;74.52
70826;SHT31;58446;41.490;22.098;2023-04-24T04:39:59;14.43;73.77
70826;SHT31;58446;41.490;22.098;2023-04-24T04:42:28;14.70;72.95
70826;SHT31;58446;41.490;22.098;2023-04-24T04:44:54;14.77;72.69
70826;SHT31;58446;41.490;22.098;2023-04-24T04:47:22;14.81;72.54
70826;SHT31;58446;41.490;22.098;2023-04-24T04:49:48;14.87;72.52
70826;SHT31;58446;41.490;22.098;2023-04-24T04:52:16;14.91;72.62
70826;SHT31;58446;41.490;22.098;2023-04-24T04:54:42;14.99;72.27
70826;SHT31;58446;41.490;22.098;2023-04-24T04:57:08;14.95;72.64
70826;SHT31;58446;41.490;22.098;2023-04-24T04:59:34;14.88;73.16
70826;SHT31;58446;41.490;22.098;2023-04-24T05:02:00;15.09;72.96
70826;SHT31;58446;41.490;22.098;2023-04-24T05:04:26;15.40;71.68
70826;SHT31;58446;41.490;22.098;2023-04-24T05:06:52;15.50;71.46
70826;SHT31;58446;41.490;22.098;2023-04-24T05:09:19;15.56;71.46
70826;SHT31;58446;41.490;22.098;2023-04-24T05:11:45;15.73;70.99
70826;SHT31;58446;41.490;22.098;2023-04-24T05:14:11;15.62;70.62
70826;SHT31;58446;41.490;22.098;2023-04-24T05:16:38;15.53;71.27
70826;SHT31;58446;41.490;22.098;2023-04-24T05:19:04;15.82;70.89
70826;SHT31;58446;41.490;22.098;2023-04-24T05:21:30;15.98;69.67
70826;SHT31;58446;41.490;22.098;2023-04-24T05:23:56;15.94;69.70
70826;SHT31;58446;41.490;22.098;2023-04-24T05:26:22;15.80;70.06
70826;SHT31;58446;41.490;22.098;2023-04-24T05:28:50;15.79;70.07
70826;SHT31;58446;41.490;22.098;2023-04-24T05:31:16;15.97;69.87
70826;SHT31;58446;41.490;22.098;2023-04-24T05:33:43;15.96;69.58
70826;SHT31;58446;41.490;22.098;2023-04-24T05:36:08;16.10;68.88
70826;SHT31;58446;41.490;22.098;2023-04-24T05:38:34;16.04;69.33
70826;SHT31;58446;41.490;22.098;2023-04-24T05:41:00;16.20;69.05
70826;SHT31;58446;41.490;22.098;2023-04-24T05:43:25;16.07;68.72
70826;SHT31;58446;41.490;22.098;2023-04-24T05:45:51;16.10;68.95
70826;SHT31;58446;41.490;22.098;2023-04-24T05:48:19;16.08;68.85
70826;SHT31;58446;41.490;22.098;2023-04-24T05:50:44;16.11;68.86
70826;SHT31;58446;41.490;22.098;2023-04-24T05:53:12;16.13;68.69
70826;SHT31;58446;41.490;22.098;2023-04-24T05:55:38;16.16;68.36
70826;SHT31;58446;41.490;22.098;2023-04-24T05:58:04;16.17;68.39
70826;SHT31;58446;41.490;22.098;2023-04-24T06:00:30;16.13;68.32
70826;SHT31;58446;41.490;22.098;2023-04-24T06:02:56;16.34;68.08
70826;SHT31;58446;41.490;22.098;2023-04-24T06:05:22;16.16;68.61
70826;SHT31;58446;41.490;22.098;2023-04-24T06:07:48;16.17;68.14
70826;SHT31;58446;41.490;22.098;2023-04-24T06:10:14;16.24;67.36
70826;SHT31;58446;41.490;22.098;2023-04-24T06:12:40;16.34;68.02
70826;SHT31;58446;41.490;22.098;2023-04-24T06:15:06;16.27;67.55
70826;SHT31;58446;41.490;22.098;2023-04-24T06:17:32;16.41;66.86
70826;SHT31;58446;41.490;22.098;2023-04-24T06:19:58;16.54;66.81
70826;SHT31;58446;41.490;22.098;2023-04-24T06:22:23;16.68;66.87
70826;SHT31;58446;41.490;22.098;2023-04-24T06:24:49;16.76;66.22
70826;SHT31;58446;41.490;22.098;2023-04-24T06:27:15;16.80;65.16
70826;SHT31;58446;41.490;22.098;2023-04-24T06:29:41;16.88;65.36
70826;SHT31;58446;41.490;22.098;2023-04-24T06:32:06;17.19;64.88
70826;SHT31;58446;41.490;22.098;2023-04-24T06:34:33;17.13;64.22
70826;SHT31;58446;41.490;22.098;2023-04-24T06:37:00;17.06;64.45
70826;SHT31;58446;41.490;22.098;2023-04-24T06:39:26;17.12;64.40
70826;SHT31;58446;41.490;22.098;2023-04-24T06:41:53;17.17;64.52
70826;SHT31;58446;41.490;22.098;2023-04-24T06:44:19;17.29;63.96
70826;SHT31;58446;41.490;22.098;2023-04-24T06:46:45;17.13;63.99
70826;SHT31;58446;41.490;22.098;2023-04-24T06:49:11;17.29;63.31
70826;SHT31;58446;41.490;22.098;2023-04-24T06:51:37;17.23;63.27
70826;SHT31;58446;41.490;22.098;2023-04-24T06:54:03;17.26;63.76
70826;SHT31;58446;41.490;22.098;2023-04-24T06:56:31;17.30;63.48
70826;SHT31;58446;41.490;22.098;2023-04-24T06:58:57;17.30;63.63
70826;SHT31;58446;41.490;22.098;2023-04-24T07:01:22;17.44;63.03
70826;SHT31;58446;41.490;22.098;2023-04-24T07:03:49;17.64;62.55
70826;SHT31;58446;41.490;22.098;2023-04-24T07:06:14;17.60;61.84
70826;SHT31;58446;41.490;22.098;2023-04-24T07:08:41;17.55;61.73
70826;SHT31;58446;41.490;22.098;2023-04-24T07:11:07;17.68;62.03
70826;SHT31;58446;41.490;22.098;2023-04-24T07:13:33;17.78;61.94
70826;SHT31;58446;41.490;22.098;2023-04-24T07:16:00;17.81;60.93
70826;SHT31;58446;41.490;22.098;2023-04-24T07:18:26;17.70;61.35
70826;SHT31;58446;41.490;22.098;2023-04-24T07:20:52;17.74;61.39
70826;SHT31;58446;41.490;22.098;2023-04-24T07:23:18;17.75;61.41
70826;SHT31;58446;41.490;22.098;2023-04-24T07:25:44;17.67;61.30
70826;SHT31;58446;41.490;22.098;2023-04-24T07:28:10;17.68;61.98
70826;SHT31;58446;41.490;22.098;2023-04-24T07:30:36;17.88;60.71
70826;SHT31;58446;41.490;22.098;2023-04-24T07:33:02;17.92;60.44
70826;SHT31;58446;41.490;22.098;2023-04-24T07:35:27;17.91;60.81
70826;SHT31;58446;41.490;22.098;2023-04-24T07:37:53;18.05;60.19
70826;SHT31;58446;41.490;22.098;2023-04-24T07:40:20;18.10;59.70
70826;SHT31;58446;41.490;22.098;2023-04-24T07:42:46;17.98;59.04
70826;SHT31;58446;41.490;22.098;2023-04-24T07:45:14;17.98;60.03
70826;SHT31;58446;41.490;22.098;2023-04-24T07:47:41;17.88;60.89
70826;SHT31;58446;41.490;22.098;2023-04-24T07:50:09;18.05;60.03
70826;SHT31;58446;41.490;22.098;2023-04-24T07:52:35;18.09;60.81
70826;SHT31;58446;41.490;22.098;2023-04-24T07:55:01;18.29;59.71
70826;SHT31;58446;41.490;22.098;2023-04-24T07:57:27;18.30;59.48
70826;SHT31;58446;41.490;22.098;2023-04-24T07:59:53;18.45;59.42
70826;SHT31;58446;41.490;22.098;2023-04-24T08:02:19;18.46;59.14
70826;SHT31;58446;41.490;22.098;2023-04-24T08:04:47;18.48;59.74
70826;SHT31;58446;41.490;22.098;2023-04-24T08:07:12;18.79;58.39
70826;SHT31;58446;41.490;22.098;2023-04-24T08:09:38;18.84;57.70
70826;SHT31;58446;41.490;22.098;2023-04-24T08:12:05;18.80;58.70
70826;SHT31;58446;41.490;22.098;2023-04-24T08:14:30;18.94;59.90
70826;SHT31;58446;41.490;22.098;2023-04-24T08:16:56;18.86;57.57
70826;SHT31;58446;41.490;22.098;2023-04-24T08:19:26;18.88;58.42
70826;SHT31;58446;41.490;22.098;2023-04-24T08:21:52;18.93;58.19
70826;SHT31;58446;41.490;22.098;2023-04-24T08:24:17;19.01;58.71
70826;SHT31;58446;41.490;22.098;2023-04-24T08:26:43;19.27;58.20
70826;SHT31;58446;41.490;22.098;2023-04-24T08:29:09;19.18;56.45
70826;SHT31;58446;41.490;22.098;2023-04-24T08:31:35;19.18;57.27
70826;SHT31;58446;41.490;22.098;2023-04-24T08:34:02;19.11;57.73
70826;SHT31;58446;41.490;22.098;2023-04-24T08:36:28;19.22;57.13
70826;SHT31;58446;41.490;22.098;2023-04-24T08:38:54;19.08;57.36
70826;SHT31;58446;41.490;22.098;2023-04-24T08:41:20;19.07;57.35
70826;SHT31;58446;41.490;22.098;2023-04-24T08:43:46;18.98;58.34
70826;SHT31;58446;41.490;22.098;2023-04-24T08:46:13;19.03;58.93
70826;SHT31;58446;41.490;22.098;2023-04-24T08:48:40;19.10;58.39
70826;SHT31;58446;41.490;22.098;2023-04-24T08:51:07;19.31;58.55
70826;SHT31;58446;41.490;22.098;2023-04-24T08:53:35;19.27;57.78
70826;SHT31;58446;41.490;22.098;2023-04-24T08:56:01;19.19;57.26
70826;SHT31;58446;41.490;22.098;2023-04-24T08:58:29;19.18;57.87
70826;SHT31;58446;41.490;22.098;2023-04-24T09:00:56;19.27;57.03
70826;SHT31;58446;41.490;22.098;2023-04-24T09:03:24;19.19;57.42
70826;SHT31;58446;41.490;22.098;2023-04-24T09:05:52;19.34;56.32
70826;SHT31;58446;41.490;22.098;2023-04-24T09:08:24;19.35;56.85
70826;SHT31;58446;41.490;22.098;2023-04-24T09:10:50;19.59;56.80
70826;SHT31;58446;41.490;22.098;2023-04-24T09:13:16;19.82;55.63
70826;SHT31;58446;41.490;22.098;2023-04-24T09:15:43;19.59;54.83
70826;SHT31;58446;41.490;22.098;2023-04-24T09:18:08;19.69;56.04
70826;SHT31;58446;41.490;22.098;2023-04-24T09:20:34;19.79;54.66
70826;SHT31;58446;41.490;22.098;2023-04-24T09:23:02;19.92;55.60
70826;SHT31;58446;41.490;22.098;2023-04-24T09:25:33;20.03;54.71
70826;SHT31;58446;41.490;22.098;2023-04-24T09:28:02;20.19;54.87
70826;SHT31;58446;41.490;22.098;2023-04-24T09:30:29;20.10;54.85
70826;SHT31;58446;41.490;22.098;2023-04-24T09:33:14;19.99;54.75
70826;SHT31;58446;41.490;22.098;2023-04-24T09:35:41;19.65;54.75
70826;SHT31;58446;41.490;22.098;2023-04-24T09:38:08;19.58;55.42
70826;SHT31;58446;41.490;22.098;2023-04-24T09:40:36;19.66;54.31
70826;SHT31;58446;41.490;22.098;2023-04-24T09:43:02;19.89;55.31
70826;SHT31;58446;41.490;22.098;2023-04-24T09:45:34;20.10;55.68
70826;SHT31;58446;41.490;22.098;2023-04-24T09:48:00;19.93;54.54
70826;SHT31;58446;41.490;22.098;2023-04-24T09:50:26;19.97;54.84
70826;SHT31;58446;41.490;22.098;2023-04-24T09:53:01;19.85;54.17
70826;SHT31;58446;41.490;22.098;2023-04-24T09:55:27;19.89;54.33
70826;SHT31;58446;41.490;22.098;2023-04-24T09:58:02;19.92;55.41
70826;SHT31;58446;41.490;22.098;2023-04-24T10:00:33;20.06;52.86
70826;SHT31;58446;41.490;22.098;2023-04-24T10:03:01;20.05;53.61
70826;SHT31;58446;41.490;22.098;2023-04-24T10:05:29;20.03;54.96
70826;SHT31;58446;41.490;22.098;2023-04-24T10:08:04;20.01;55.28
70826;SHT31;58446;41.490;22.098;2023-04-24T10:10:38;20.07;54.45
70826;SHT31;58446;41.490;22.098;2023-04-24T10:13:04;19.93;53.98
70826;SHT31;58446;41.490;22.098;2023-04-24T10:15:30;20.00;54.89
70826;SHT31;58446;41.490;22.098;2023-04-24T10:17:58;20.14;55.24
70826;SHT31;58446;41.490;22.098;2023-04-24T10:20:26;20.14;55.12
70826;SHT31;58446;41.490;22.098;2023-04-24T10:22:53;20.23;55.47
70826;SHT31;58446;41.490;22.098;2023-04-24T10:25:25;20.27;55.33
70826;SHT31;58446;41.490;22.098;2023-04-24T10:27:52;20.47;54.60
70826;SHT31;58446;41.490;22.098;2023-04-24T10:30:20;20.43;54.67
70826;SHT31;58446;41.490;22.098;2023-04-24T10:32:46;20.54;53.70
70826;SHT31;58446;41.490;22.098;2023-04-24T10:35:13;20.61;53.95
70826;SHT31;58446;41.490;22.098;2023-04-24T10:37:44;20.71;52.90
70826;SHT31;58446;41.490;22.098;2023-04-24T10:40:11;20.74;53.00
70826;SHT31;58446;41.490;22.098;2023-04-24T10:42:40;20.82;52.22
70826;SHT31;58446;41.490;22.098;2023-04-24T10:45:16;20.79;54.64
70826;SHT31;58446;41.490;22.098;2023-04-24T10:47:56;20.88;54.76
70826;SHT31;58446;41.490;22.098;2023-04-24T10:50:22;20.91;53.15
70826;SHT31;58446;41.490;22.098;2023-04-24T10:52:49;20.81;52.80
70826;SHT31;58446;41.490;22.098;2023-04-24T10:55:18;20.68;53.88
70826;SHT31;58446;41.490;22.098;2023-04-24T10:58:06;20.54;53.66
70826;SHT31;58446;41.490;22.098;2023-04-24T11:00:36;20.47;52.86
70826;SHT31;58446;41.490;22.098;2023-04-24T11:03:05;20.38;52.98
70826;SHT31;58446;41.490;22.098;2023-04-24T11:05:58;20.33;55.01
70826;SHT31;58446;41.490;22.098;2023-04-24T11:08:26;20.40;53.08
70826;SHT31;58446;41.490;22.098;2023-04-24T11:10:56;20.45;53.84
70826;SHT31;58446;41.490;22.098;2023-04-24T11:13:25;20.54;53.61
70826;SHT31;58446;41.490;22.098;2023-04-24T11:19:06;20.78;53.45
70826;SHT31;58446;41.490;22.098;2023-04-24T11:21:43;20.74;54.06
70826;SHT31;58446;41.490;22.098;2023-04-24T11:24:28;20.75;53.43
70826;SHT31;58446;41.490;22.098;2023-04-24T11:27:21;20.77;53.29
70826;SHT31;58446;41.490;22.098;2023-04-24T11:30:04;20.84;54.02
70826;SHT31;58446;41.490;22.098;2023-04-24T11:35:21;21.00;53.09
70826;SHT31;58446;41.490;22.098;2023-04-24T11:37:54;20.87;53.20
70826;SHT31;58446;41.490;22.098;2023-04-24T11:40:24;20.96;53.52
70826;SHT31;58446;41.490;22.098;2023-04-24T11:42:54;20.89;53.86
70826;SHT31;58446;41.490;22.098;2023-04-24T11:45:27;21.08;53.04
70826;SHT31;58446;41.490;22.098;2023-04-24T11:47:53;21.19;52.11
70826;SHT31;58446;41.490;22.098;2023-04-24T11:50:24;21.18;52.86
70826;SHT31;58446;41.490;22.098;2023-04-24T11:52:51;21.00;52.20
70826;SHT31;58446;41.490;22.098;2023-04-24T11:57:47;20.91;53.83
70826;SHT31;58446;41.490;22.098;2023-04-24T12:03:11;20.94;53.62
70826;SHT31;58446;41.490;22.098;2023-04-24T12:05:38;20.81;53.19
70826;SHT31;58446;41.490;22.098;2023-04-24T12:08:04;20.69;54.14
70826;SHT31;58446;41.490;22.098;2023-04-24T12:10:32;20.67;54.93
70826;SHT31;58446;41.490;22.098;2023-04-24T12:12:59;20.69;53.61
70826;SHT31;58446;41.490;22.098;2023-04-24T12:15:26;20.58;53.83
70826;SHT31;58446;41.490;22.098;2023-04-24T12:17:53;20.48;54.44
70826;SHT31;58446;41.490;22.098;2023-04-24T12:20:26;20.50;54.69
70826;SHT31;58446;41.490;22.098;2023-04-24T12:22:54;20.48;54.20
70826;SHT31;58446;41.490;22.098;2023-04-24T12:25:22;20.45;53.95
70826;SHT31;58446;41.490;22.098;2023-04-24T12:27:53;20.37;54.72
70826;SHT31;58446;41.490;22.098;2023-04-24T12:30:21;20.33;54.50
70826;SHT31;58446;41.490;22.098;2023-04-24T12:32:52;20.29;54.92
70826;SHT31;58446;41.490;22.098;2023-04-24T12:35:22;20.34;54.86
70826;SHT31;58446;41.490;22.098;2023-04-24T12:37:48;20.33;54.56
70826;SHT31;58446;41.490;22.098;2023-04-24T12:40:15;20.16;55.11
70826;SHT31;58446;41.490;22.098;2023-04-24T12:42:46;20.10;55.51
70826;SHT31;58446;41.490;22.098;2023-04-24T12:45:12;20.13;55.61
70826;SHT31;58446;41.490;22.098;2023-04-24T12:47:39;20.16;55.82
70826;SHT31;58446;41.490;22.098;2023-04-24T12:50:11;20.20;55.48
70826;SHT31;58446;41.490;22.098;2023-04-24T12:52:38;20.06;55.43
70826;SHT31;58446;41.490;22.098;2023-04-24T12:55:06;20.20;55.59
70826;SHT31;58446;41.490;22.098;2023-04-24T12:57:37;20.09;55.43
70826;SHT31;58446;41.490;22.098;2023-04-24T13:00:04;20.12;56.16
70826;SHT31;58446;41.490;22.098;2023-04-24T13:02:30;20.24;56.47
70826;SHT31;58446;41.490;22.098;2023-04-24T13:05:00;20.23;56.12
70826;SHT31;58446;41.490;22.098;2023-04-24T13:07:27;20.16;55.72
70826;SHT31;58446;41.490;22.098;2023-04-24T13:09:54;20.09;56.99
70826;SHT31;58446;41.490;22.098;2023-04-24T13:12:20;20.12;57.34
70826;SHT31;58446;41.490;22.098;2023-04-24T13:14:46;20.21;56.88
70826;SHT31;58446;41.490;22.098;2023-04-24T13:17:11;20.16;57.04
70826;SHT31;58446;41.490;22.098;2023-04-24T13:19:40;20.17;57.35
70826;SHT31;58446;41.490;22.098;2023-04-24T13:22:06;20.21;57.21
70826;SHT31;58446;41.490;22.098;2023-04-24T13:24:34;20.17;57.29
70826;SHT31;58446;41.490;22.098;2023-04-24T13:27:00;20.06;57.09
70826;SHT31;58446;41.490;22.098;2023-04-24T13:29:26;20.03;57.58
70826;SHT31;58446;41.490;22.098;2023-04-24T13:31:53;20.17;57.79
70826;SHT31;58446;41.490;22.098;2023-04-24T13:34:29;20.33;57.05
70826;SHT31;58446;41.490;22.098;2023-04-24T13:36:57;20.41;57.09
70826;SHT31;58446;41.490;22.098;2023-04-24T13:39:24;20.54;56.39
70826;SHT31;58446;41.490;22.098;2023-04-24T13:41:51;20.47;56.48
70826;SHT31;58446;41.490;22.098;2023-04-24T13:44:18;20.44;56.07
70826;SHT31;58446;41.490;22.098;2023-04-24T13:46:46;20.38;56.21
70826;SHT31;58446;41.490;22.098;2023-04-24T13:49:12;20.41;56.10
70826;SHT31;58446;41.490;22.098;2023-04-24T13:51:41;20.55;56.25
70826;SHT31;58446;41.490;22.098;2023-04-24T13:54:08;20.52;56.47
70826;SHT31;58446;41.490;22.098;2023-04-24T13:56:33;20.52;56.67
70826;SHT31;58446;41.490;22.098;2023-04-24T13:58:59;20.51;56.57
70826;SHT31;58446;41.490;22.098;2023-04-24T14:01:26;20.37;56.48
70826;SHT31;58446;41.490;22.098;2023-04-24T14:03:53;20.29;57.20
70826;SHT31;58446;41.490;22.098;2023-04-24T14:06:19;20.34;57.42
70826;SHT31;58446;41.490;22.098;2023-04-24T14:08:46;20.29;57.42
70826;SHT31;58446;41.490;22.098;2023-04-24T14:11:12;20.24;57.65
70826;SHT31;58446;41.490;22.098;2023-04-24T14:13:40;20.20;57.69
70826;SHT31;58446;41.490;22.098;2023-04-24T14:16:06;20.21;58.61
70826;SHT31;58446;41.490;22.098;2023-04-24T14:18:32;20.33;58.34
70826;SHT31;58446;41.490;22.098;2023-04-24T14:20:58;20.31;57.26
70826;SHT31;58446;41.490;22.098;2023-04-24T14:23:24;20.29;57.61
70826;SHT31;58446;41.490;22.098;2023-04-24T14:25:50;20.13;57.50
70826;SHT31;58446;41.490;22.098;2023-04-24T14:28:20;20.06;57.86
70826;SHT31;58446;41.490;22.098;2023-04-24T14:30:47;20.00;58.19
70826;SHT31;58446;41.490;22.098;2023-04-24T14:33:13;19.97;58.77
70826;SHT31;58446;41.490;22.098;2023-04-24T14:35:41;19.80;59.39
70826;SHT31;58446;41.490;22.098;2023-04-24T14:38:10;19.70;59.75
70826;SHT31;58446;41.490;22.098;2023-04-24T14:40:36;19.68;59.37
70826;SHT31;58446;41.490;22.098;2023-04-24T14:43:02;19.61;60.17
70826;SHT31;58446;41.490;22.098;2023-04-24T14:45:28;19.65;60.37
70826;SHT31;58446;41.490;22.098;2023-04-24T14:47:54;19.62;60.13
70826;SHT31;58446;41.490;22.098;2023-04-24T14:50:20;19.66;60.20
70826;SHT31;58446;41.490;22.098;2023-04-24T14:52:46;19.63;60.39
70826;SHT31;58446;41.490;22.098;2023-04-24T14:55:12;19.61;60.43
70826;SHT31;58446;41.490;22.098;2023-04-24T14:57:38;19.57;60.12
70826;SHT31;58446;41.490;22.098;2023-04-24T15:00:05;19.65;60.05
70826;SHT31;58446;41.490;22.098;2023-04-24T15:02:34;19.69;60.55
70826;SHT31;58446;41.490;22.098;2023-04-24T15:05:02;19.68;60.08
70826;SHT31;58446;41.490;22.098;2023-04-24T15:07:28;19.68;59.94
70826;SHT31;58446;41.490;22.098;2023-04-24T15:09:54;19.58;60.26
70826;SHT31;58446;41.490;22.098;2023-04-24T15:12:21;19.54;60.62
70826;SHT31;58446;41.490;22.098;2023-04-24T15:14:46;19.47;60.71
70826;SHT31;58446;41.490;22.098;2023-04-24T15:17:12;19.35;61.47
70826;SHT31;58446;41.490;22.098;2023-04-24T15:19:38;19.29;61.05
70826;SHT31;58446;41.490;22.098;2023-04-24T15:22:04;19.19;61.12
70826;SHT31;58446;41.490;22.098;2023-04-24T15:24:29;19.15;61.75
70826;SHT31;58446;41.490;22.098;2023-04-24T15:26:55;19.19;61.88